Time;durP1;ratioP1;P1;durP2;ratioP2;P2;SDS_P1;SDS_P2;PMS_P1;PMS_P2;Temp;Humidity;BMP_temperature;BMP_pressure;BME280_temperature;BME280_humidity;BME280_pressure;Samples;Min_cycle;Max_cycle;Signal;HPM_P1;HPM_P2
2023/11/27 00:02:13;;;;;;;7.10;4.60;;;6.90;99.90;;;;;;5034840;28;20189;-66
2023/11/27 00:04:38;;;;;;;7.77;3.90;;;7.00;99.90;;;;;;5035185;28;20630;-69
2023/11/27 00:07:04;;;;;;;6.40;4.70;;;6.80;99.90;;;;;;5034377;28;20584;-74
2023/11/27 00:09:31;;;;;;;7.33;4.47;;;6.80;99.90;;;;;;5036123;28;20194;-69
2023/11/27 00:11:57;;;;;;;4.87;4.23;;;6.70;99.90;;;;;;5034620;28;20182;-69
2023/11/27 00:14:22;;;;;;;4.30;3.90;;;6.70;99.90;;;;;;5033886;28;21032;-66
2023/11/27 00:16:48;;;;;;;8.03;3.90;;;6.70;99.90;;;;;;5034375;28;20192;-70
2023/11/27 00:19:14;;;;;;;6.00;3.77;;;6.70;99.90;;;;;;5034393;28;20252;-69
2023/11/27 00:21:40;;;;;;;6.00;4.00;;;6.70;99.90;;;;;;5034775;28;20508;-70
2023/11/27 00:24:06;;;;;;;11.57;4.40;;;6.70;99.90;;;;;;5034180;28;20784;-66
2023/11/27 00:26:31;;;;;;;8.80;4.03;;;6.70;99.90;;;;;;5035229;28;20202;-71
2023/11/27 00:28:57;;;;;;;7.80;4.13;;;6.70;99.90;;;;;;5034229;28;20182;-71
2023/11/27 00:31:23;;;;;;;8.80;4.70;;;6.60;99.90;;;;;;5034432;28;20457;-67
2023/11/27 00:33:49;;;;;;;5.60;4.30;;;6.60;99.90;;;;;;5033446;28;20664;-68
2023/11/27 00:36:16;;;;;;;9.93;3.60;;;6.70;99.90;;;;;;5034113;28;20213;-69
2023/11/27 00:38:41;;;;;;;6.73;4.50;;;6.70;99.90;;;;;;5034667;28;20826;-70
2023/11/27 00:41:07;;;;;;;6.00;3.67;;;6.70;99.90;;;;;;5033525;28;20441;-73
2023/11/27 00:43:34;;;;;;;9.60;3.60;;;6.60;99.90;;;;;;5034477;28;20520;-66
2023/11/27 00:46:00;;;;;;;5.53;3.37;;;6.60;99.90;;;;;;5033318;28;20437;-65
2023/11/27 00:48:26;;;;;;;6.67;3.73;;;6.70;99.90;;;;;;5033183;28;20821;-69
2023/11/27 00:50:52;;;;;;;5.67;3.77;;;6.70;99.90;;;;;;5033888;28;20923;-71
2023/11/27 00:53:18;;;;;;;6.87;3.10;;;6.60;99.90;;;;;;5032654;28;20433;-66
2023/11/27 00:55:44;;;;;;;4.63;3.87;;;6.50;99.90;;;;;;5034045;28;20440;-69
2023/11/27 00:58:10;;;;;;;6.20;4.10;;;6.60;99.90;;;;;;5033520;28;20928;-72
2023/11/27 01:00:36;;;;;;;4.97;3.33;;;6.60;99.90;;;;;;5034699;28;20221;-67
2023/11/27 01:03:02;;;;;;;5.87;3.70;;;6.70;99.90;;;;;;5033934;28;20423;-65
2023/11/27 01:05:28;;;;;;;6.40;3.67;;;6.70;99.90;;;;;;5033526;28;20821;-65
2023/11/27 01:07:53;;;;;;;4.40;3.43;;;6.80;99.90;;;;;;5034491;28;20420;-70
2023/11/27 01:10:19;;;;;;;6.50;3.87;;;6.80;99.90;;;;;;5033889;28;20273;-69
2023/11/27 01:12:45;;;;;;;6.50;4.00;;;6.90;99.90;;;;;;5033392;28;20931;-70
2023/11/27 01:15:11;;;;;;;3.97;3.57;;;6.90;99.90;;;;;;5033186;28;20276;-68
2023/11/27 01:17:38;;;;;;;4.50;4.07;;;6.90;99.90;;;;;;5033995;28;20642;-68
2023/11/27 01:20:07;;;;;;;7.47;4.20;;;6.90;99.90;;;;;;5033639;28;20904;-65
2023/11/27 01:22:37;;;;;;;5.80;3.90;;;6.90;99.90;;;;;;5038892;28;20429;-68
2023/11/27 01:25:04;;;;;;;7.67;4.57;;;6.80;99.90;;;;;;5033562;28;20501;-65
2023/11/27 01:27:31;;;;;;;5.97;3.53;;;6.70;99.90;;;;;;5033247;28;20425;-67
2023/11/27 01:29:57;;;;;;;7.60;3.97;;;6.70;99.90;;;;;;5033839;28;20503;-66
2023/11/27 01:32:24;;;;;;;6.77;4.03;;;6.70;99.90;;;;;;5032776;28;21107;-68
2023/11/27 01:34:53;;;;;;;6.63;4.63;;;6.70;99.90;;;;;;5032904;28;20192;-67
2023/11/27 01:37:19;;;;;;;6.37;4.20;;;6.60;99.90;;;;;;5033510;28;20424;-72
2023/11/27 01:39:45;;;;;;;8.73;4.23;;;6.70;99.90;;;;;;5033512;28;20483;-73
2023/11/27 01:42:12;;;;;;;6.80;4.00;;;6.60;99.90;;;;;;5034174;28;20775;-69
2023/11/27 01:44:38;;;;;;;9.40;3.90;;;6.60;99.90;;;;;;5032886;28;20451;-67
2023/11/27 01:47:04;;;;;;;10.57;4.10;;;6.50;99.90;;;;;;5033311;28;20432;-69
2023/11/27 01:49:33;;;;;;;8.93;4.13;;;6.50;99.90;;;;;;5031730;28;20801;-70
2023/11/27 01:52:01;;;;;;;6.87;4.40;;;6.60;99.90;;;;;;5033632;28;20430;-70
2023/11/27 01:54:29;;;;;;;5.73;4.37;;;6.60;99.90;;;;;;5031316;28;21241;-69
2023/11/27 01:56:56;;;;;;;7.17;4.57;;;6.60;99.90;;;;;;5033510;28;20431;-68
2023/11/27 01:59:23;;;;;;;8.23;4.37;;;6.60;99.90;;;;;;5035438;28;20548;-69
2023/11/27 02:01:49;;;;;;;7.07;4.80;;;6.60;99.90;;;;;;5033431;28;22343;-70
2023/11/27 02:04:16;;;;;;;8.77;4.43;;;6.50;99.90;;;;;;5031492;28;20432;-68
2023/11/27 02:06:41;;;;;;;9.57;4.47;;;6.40;99.90;;;;;;5033144;28;21123;-66
2023/11/27 02:09:10;;;;;;;4.33;3.90;;;6.30;99.90;;;;;;5033837;28;20425;-68
2023/11/27 02:11:49;;;;;;;10.60;4.93;;;6.40;99.90;;;;;;5032895;28;20190;-68
2023/11/27 02:14:16;;;;;;;6.57;4.60;;;6.40;99.90;;;;;;5031746;28;20428;-68
2023/11/27 02:16:48;;;;;;;5.43;4.70;;;6.50;99.90;;;;;;5032769;28;20429;-66
2023/11/27 02:19:14;;;;;;;6.53;4.20;;;6.40;99.90;;;;;;5032208;28;20467;-69
2023/11/27 02:21:44;;;;;;;6.00;4.07;;;6.40;99.90;;;;;;5045030;28;20984;-70
2023/11/27 02:24:10;;;;;;;8.10;4.47;;;6.50;99.90;;;;;;5032275;28;20436;-66
2023/11/27 02:26:35;;;;;;;9.53;5.27;;;6.50;99.90;;;;;;5032157;28;20439;-69
2023/11/27 02:29:01;;;;;;;5.97;4.23;;;6.50;99.90;;;;;;5032893;28;20197;-69
2023/11/27 02:31:27;;;;;;;6.73;5.07;;;6.50;99.90;;;;;;5030768;28;20217;-71
2023/11/27 02:33:53;;;;;;;5.30;4.23;;;6.50;99.90;;;;;;5031728;28;20782;-65
2023/11/27 02:36:24;;;;;;;5.87;4.10;;;6.60;99.90;;;;;;5032339;28;20297;-66
2023/11/27 02:38:50;;;;;;;5.43;4.60;;;6.50;99.90;;;;;;5032815;28;20304;-65
2023/11/27 02:41:16;;;;;;;7.43;4.67;;;6.60;99.90;;;;;;5032250;28;21160;-71
2023/11/27 02:43:42;;;;;;;7.17;4.57;;;6.40;99.90;;;;;;5031754;28;20315;-66
2023/11/27 02:46:08;;;;;;;6.20;5.13;;;6.50;99.90;;;;;;5031890;28;20429;-65
2023/11/27 02:48:33;;;;;;;7.50;4.53;;;6.40;99.90;;;;;;5031831;28;20432;-69
2023/11/27 02:50:59;;;;;;;8.00;5.43;;;6.50;99.90;;;;;;5032469;28;20188;-69
2023/11/27 02:53:25;;;;;;;5.73;4.10;;;6.50;99.90;;;;;;5031316;28;20877;-65
2023/11/27 02:55:52;;;;;;;6.40;4.77;;;6.50;99.90;;;;;;5031661;28;20192;-67
2023/11/27 02:58:17;;;;;;;5.40;4.33;;;6.50;99.90;;;;;;5032521;28;20185;-67
2023/11/27 03:00:43;;;;;;;5.50;4.17;;;6.60;99.90;;;;;;5031920;28;21355;-66
2023/11/27 03:03:09;;;;;;;7.00;4.80;;;6.70;99.90;;;;;;5032280;28;20182;-66
2023/11/27 03:05:35;;;;;;;5.07;4.57;;;6.70;99.90;;;;;;5031073;28;20443;-72
2023/11/27 03:08:02;;;;;;;7.10;5.07;;;6.60;99.90;;;;;;5032480;28;20193;-63
2023/11/27 03:10:28;;;;;;;7.80;4.37;;;6.60;99.90;;;;;;5032308;28;20429;-68
2023/11/27 03:12:54;;;;;;;6.00;4.33;;;6.60;99.90;;;;;;5031657;28;20435;-69
2023/11/27 03:15:20;;;;;;;6.37;4.77;;;6.50;99.90;;;;;;5031935;28;20281;-72
2023/11/27 03:17:46;;;;;;;6.93;6.33;;;6.50;99.90;;;;;;5031726;28;20276;-67
2023/11/27 03:20:13;;;;;;;7.57;4.67;;;6.60;99.90;;;;;;5031718;28;20595;-65
2023/11/27 03:22:39;;;;;;;4.40;3.90;;;6.60;99.90;;;;;;5031062;28;20429;-65
2023/11/27 03:25:05;;;;;;;5.80;4.37;;;6.60;99.90;;;;;;5031645;28;20933;-72
2023/11/27 03:27:32;;;;;;;6.20;4.23;;;6.60;99.90;;;;;;5032166;28;20441;-70
2023/11/27 03:29:57;;;;;;;5.37;4.77;;;6.60;99.90;;;;;;5032238;28;20500;-66
2023/11/27 03:32:23;;;;;;;6.20;4.40;;;6.60;99.90;;;;;;5032268;28;20447;-65
2023/11/27 03:34:49;;;;;;;10.30;4.87;;;6.50;99.90;;;;;;5030333;28;20448;-71
2023/11/27 03:37:15;;;;;;;7.23;4.70;;;6.60;99.90;;;;;;5031901;28;20228;-63
2023/11/27 03:39:40;;;;;;;5.77;4.17;;;6.70;99.90;;;;;;5031515;28;20279;-66
2023/11/27 03:42:06;;;;;;;7.40;4.60;;;6.60;99.90;;;;;;5032183;28;20312;-69
2023/11/27 03:44:32;;;;;;;5.40;4.23;;;6.60;99.90;;;;;;5031343;28;20186;-67
2023/11/27 03:46:58;;;;;;;6.00;4.80;;;6.60;99.90;;;;;;5032191;28;20428;-69
2023/11/27 03:49:24;;;;;;;5.97;4.80;;;6.70;99.90;;;;;;5030846;28;21175;-71
2023/11/27 03:51:49;;;;;;;9.50;5.37;;;6.60;99.90;;;;;;5031048;28;20193;-71
2023/11/27 03:54:15;;;;;;;7.57;5.43;;;6.60;99.90;;;;;;5031239;28;20300;-69
2023/11/27 03:56:41;;;;;;;10.43;4.87;;;6.70;99.90;;;;;;5031543;28;20512;-69
2023/11/27 03:59:07;;;;;;;7.73;4.77;;;6.70;99.90;;;;;;5031909;28;20216;-63
2023/11/27 04:01:33;;;;;;;5.53;4.23;;;6.60;99.90;;;;;;5031926;28;20424;-68
2023/11/27 04:04:02;;;;;;;10.50;5.50;;;6.70;99.90;;;;;;5030439;28;21053;-71
2023/11/27 04:06:31;;;;;;;6.60;5.17;;;6.60;99.90;;;;;;5032431;28;20452;-67
2023/11/27 04:08:57;;;;;;;5.93;5.10;;;6.60;99.90;;;;;;5031282;28;20424;-72
2023/11/27 04:11:27;;;;;;;9.00;5.03;;;6.60;99.90;;;;;;5032619;28;20435;-67
2023/11/27 04:13:54;;;;;;;7.37;5.10;;;6.60;99.90;;;;;;5030282;28;20424;-67
2023/11/27 04:16:19;;;;;;;12.07;5.57;;;6.50;99.90;;;;;;5031570;28;20991;-71
2023/11/27 04:18:45;;;;;;;5.83;5.10;;;6.40;99.90;;;;;;5032078;28;20436;-65
2023/11/27 04:21:11;;;;;;;7.83;6.07;;;6.50;99.90;;;;;;5031112;28;20186;-69
2023/11/27 04:23:36;;;;;;;6.33;5.30;;;6.50;99.90;;;;;;5032199;28;20221;-69
2023/11/27 04:26:02;;;;;;;8.23;5.40;;;6.60;99.90;;;;;;5030558;28;20190;-69
2023/11/27 04:28:28;;;;;;;5.43;4.83;;;6.60;99.90;;;;;;5032849;28;21174;-69
2023/11/27 04:30:53;;;;;;;7.27;5.30;;;6.60;99.90;;;;;;5035459;28;20254;-72
2023/11/27 04:33:20;;;;;;;6.03;5.53;;;6.60;99.90;;;;;;5035347;28;20175;-70
2023/11/27 04:35:45;;;;;;;7.93;5.00;;;6.50;99.90;;;;;;5034605;28;20671;-67
2023/11/27 04:38:11;;;;;;;7.83;5.43;;;6.50;99.90;;;;;;5034647;28;20441;-67
2023/11/27 04:40:37;;;;;;;9.27;6.07;;;6.50;99.90;;;;;;5036119;28;20397;-71
2023/11/27 04:43:03;;;;;;;5.60;4.83;;;6.40;99.90;;;;;;5034454;28;20205;-72
2023/11/27 04:45:29;;;;;;;7.77;5.90;;;6.40;99.90;;;;;;5033675;28;20182;-70
2023/11/27 04:47:55;;;;;;;7.30;5.60;;;6.40;99.90;;;;;;5033234;28;20497;-66
2023/11/27 04:50:21;;;;;;;6.47;5.77;;;6.40;99.90;;;;;;5035169;28;20183;-67
2023/11/27 04:52:47;;;;;;;5.83;5.23;;;6.40;99.90;;;;;;5034504;28;20201;-68
2023/11/27 04:55:13;;;;;;;6.67;5.33;;;6.40;99.90;;;;;;5033870;28;21194;-73
2023/11/27 04:57:38;;;;;;;9.03;5.77;;;6.40;99.90;;;;;;5049592;28;20630;-67
2023/11/27 05:00:06;;;;;;;6.47;5.87;;;6.40;99.90;;;;;;5033476;28;20476;-67
2023/11/27 05:02:32;;;;;;;7.20;6.07;;;6.40;99.90;;;;;;5034671;28;20194;-71
2023/11/27 05:04:57;;;;;;;9.13;6.00;;;6.30;99.90;;;;;;5033304;28;20436;-72
2023/11/27 05:07:23;;;;;;;7.60;5.30;;;6.30;99.90;;;;;;5034843;28;20427;-68
2023/11/27 05:09:49;;;;;;;8.60;6.20;;;6.30;99.90;;;;;;5034579;28;20181;-66
2023/11/27 05:12:15;;;;;;;9.93;5.90;;;6.30;99.90;;;;;;5034395;28;20961;-70
2023/11/27 05:14:41;;;;;;;10.30;6.60;;;6.40;99.90;;;;;;5034496;28;20432;-67
2023/11/27 05:17:08;;;;;;;6.90;5.37;;;6.40;99.90;;;;;;5033835;28;20189;-68
2023/11/27 05:19:35;;;;;;;6.20;5.10;;;6.40;99.90;;;;;;5034275;28;20460;-67
2023/11/27 05:22:04;;;;;;;6.60;5.20;;;6.40;99.90;;;;;;5033636;28;21034;-67
2023/11/27 05:24:30;;;;;;;8.33;5.93;;;6.40;99.90;;;;;;5033691;28;20435;-64
2023/11/27 05:26:57;;;;;;;7.40;6.00;;;6.30;99.90;;;;;;5033833;28;21015;-70
2023/11/27 05:29:24;;;;;;;9.20;6.10;;;6.30;99.90;;;;;;5039066;28;20836;-68
2023/11/27 05:31:50;;;;;;;7.00;5.80;;;6.30;99.90;;;;;;5034644;28;20428;-66
2023/11/27 05:34:16;;;;;;;5.90;5.40;;;6.30;99.90;;;;;;5032608;28;20437;-70
2023/11/27 05:36:42;;;;;;;10.10;6.53;;;6.30;99.90;;;;;;5034684;28;20436;-66
2023/11/27 05:39:10;;;;;;;7.17;5.73;;;6.20;99.90;;;;;;5033377;28;20951;-67
2023/11/27 05:41:39;;;;;;;7.80;6.07;;;6.20;99.90;;;;;;5031865;28;20452;-70
2023/11/27 05:44:06;;;;;;;6.03;5.33;;;6.20;99.90;;;;;;5032154;28;20441;-69
2023/11/27 05:46:32;;;;;;;9.70;5.80;;;6.20;99.90;;;;;;5034318;28;20510;-63
2023/11/27 05:49:00;;;;;;;7.87;6.03;;;6.20;99.90;;;;;;5032678;28;20430;-68
2023/11/27 05:51:26;;;;;;;5.77;5.13;;;6.20;99.90;;;;;;5034604;28;20507;-67
2023/11/27 05:53:55;;;;;;;6.67;5.40;;;6.10;99.90;;;;;;5034051;28;20437;-69
2023/11/27 05:56:22;;;;;;;10.37;6.10;;;6.10;99.90;;;;;;5033347;28;20440;-70
2023/11/27 05:58:48;;;;;;;6.30;5.13;;;6.10;99.90;;;;;;5033625;28;20435;-68
2023/11/27 06:01:13;;;;;;;8.97;5.17;;;6.10;99.90;;;;;;5031793;28;20425;-66
2023/11/27 06:03:39;;;;;;;7.43;5.13;;;6.10;99.90;;;;;;5033413;28;20213;-67
2023/11/27 06:06:08;;;;;;;5.57;4.20;;;6.00;99.90;;;;;;5031632;28;20519;-66
2023/11/27 06:08:34;;;;;;;6.17;5.30;;;6.00;99.90;;;;;;5033207;28;20593;-69
2023/11/27 06:11:05;;;;;;;7.20;5.03;;;6.00;99.90;;;;;;5032757;28;20483;-73
2023/11/27 06:13:31;;;;;;;13.50;6.23;;;5.90;99.90;;;;;;5032177;28;20193;-66
2023/11/27 06:15:58;;;;;;;7.73;5.30;;;5.90;99.90;;;;;;5032804;28;20447;-68
2023/11/27 06:18:23;;;;;;;8.33;6.03;;;5.80;99.90;;;;;;5032303;28;20227;-67
2023/11/27 06:20:49;;;;;;;7.13;4.90;;;5.80;99.90;;;;;;5033262;28;20461;-65
2023/11/27 06:23:15;;;;;;;10.10;5.00;;;5.80;99.90;;;;;;5032498;28;20197;-63
2023/11/27 06:25:41;;;;;;;8.03;5.00;;;5.70;99.90;;;;;;5032072;28;20186;-73
2023/11/27 06:28:13;;;;;;;6.07;4.40;;;5.70;99.90;;;;;;5031811;28;20188;-72
2023/11/27 06:30:39;;;;;;;6.53;5.20;;;5.70;99.90;;;;;;5032555;28;20428;-66
2023/11/27 06:33:05;;;;;;;9.67;5.90;;;5.70;99.90;;;;;;5031651;28;20506;-66
2023/11/27 06:35:31;;;;;;;7.40;4.60;;;5.70;99.90;;;;;;5032848;28;20499;-67
2023/11/27 06:37:56;;;;;;;8.43;4.57;;;5.60;99.90;;;;;;5032823;28;20190;-70
2023/11/27 06:40:24;;;;;;;9.13;5.33;;;5.60;99.90;;;;;;5033124;28;20225;-72
2023/11/27 06:42:49;;;;;;;7.90;4.97;;;5.60;99.90;;;;;;5034570;28;20197;-70
2023/11/27 06:45:16;;;;;;;7.40;5.67;;;5.60;99.90;;;;;;5032245;28;20421;-65
2023/11/27 06:47:41;;;;;;;7.50;5.03;;;5.60;99.90;;;;;;5033686;28;20188;-68
2023/11/27 06:50:07;;;;;;;7.83;5.20;;;5.60;99.90;;;;;;5031802;28;20425;-64
2023/11/27 06:52:33;;;;;;;6.43;5.20;;;5.60;99.90;;;;;;5032311;28;20229;-66
2023/11/27 06:54:59;;;;;;;7.53;4.70;;;5.60;99.90;;;;;;5032146;28;20455;-65
2023/11/27 06:57:26;;;;;;;6.87;5.27;;;5.60;99.90;;;;;;5029873;28;20897;-66
2023/11/27 06:59:52;;;;;;;6.57;4.73;;;5.70;99.90;;;;;;5031575;28;20476;-77
2023/11/27 07:02:18;;;;;;;7.87;5.07;;;5.60;99.90;;;;;;5030985;28;20502;-66
2023/11/27 07:04:44;;;;;;;6.23;4.83;;;5.60;99.90;;;;;;5031947;28;20178;-68
2023/11/27 07:07:09;;;;;;;5.20;4.70;;;5.50;99.90;;;;;;5032072;28;21112;-75
2023/11/27 07:09:35;;;;;;;8.40;5.50;;;5.50;99.90;;;;;;5033232;28;20440;-68
2023/11/27 07:12:01;;;;;;;5.57;5.00;;;5.40;99.90;;;;;;5034495;28;20836;-73
2023/11/27 07:14:27;;;;;;;7.70;5.10;;;5.40;99.90;;;;;;5031848;28;21121;-76
2023/11/27 07:16:54;;;;;;;7.00;5.03;;;5.40;99.90;;;;;;5034130;28;20428;-72
2023/11/27 07:19:20;;;;;;;5.40;4.90;;;5.40;99.90;;;;;;5033647;28;20245;-70
2023/11/27 07:21:45;;;;;;;6.63;5.07;;;5.40;99.90;;;;;;5056966;28;20467;-74
2023/11/27 07:24:12;;;;;;;8.47;5.83;;;5.40;99.90;;;;;;5033349;28;20194;-73
2023/11/27 07:26:38;;;;;;;5.97;4.43;;;5.40;99.90;;;;;;5034053;28;20191;-74
2023/11/27 07:29:03;;;;;;;11.60;5.47;;;5.30;99.90;;;;;;5034003;28;20426;-72
2023/11/27 07:31:31;;;;;;;8.40;5.37;;;5.30;99.90;;;;;;5033542;28;20273;-77
2023/11/27 07:33:58;;;;;;;5.30;4.70;;;5.20;99.90;;;;;;5033835;28;20926;-67
2023/11/27 07:36:24;;;;;;;5.40;4.47;;;5.20;99.90;;;;;;5033521;28;20780;-69
2023/11/27 07:38:50;;;;;;;9.60;5.40;;;5.20;99.90;;;;;;5034686;28;20781;-72
2023/11/27 07:41:16;;;;;;;5.57;4.87;;;5.10;99.90;;;;;;5033160;28;20455;-67
2023/11/27 07:43:42;;;;;;;8.53;5.23;;;5.20;99.90;;;;;;5033887;28;20435;-70
2023/11/27 07:46:11;;;;;;;6.80;5.27;;;5.20;99.90;;;;;;5031325;28;20614;-69
2023/11/27 07:48:41;;;;;;;6.40;4.97;;;5.20;99.90;;;;;;5031120;28;20192;-70
2023/11/27 07:51:08;;;;;;;5.80;4.30;;;5.10;99.90;;;;;;5032328;28;20435;-74
2023/11/27 07:53:35;;;;;;;5.27;4.07;;;5.10;99.90;;;;;;5032266;28;20506;-70
2023/11/27 07:56:01;;;;;;;7.23;4.73;;;5.10;99.90;;;;;;5032291;28;20436;-63
2023/11/27 07:58:27;;;;;;;7.20;3.73;;;5.10;99.90;;;;;;5030780;28;20433;-72
2023/11/27 08:00:54;;;;;;;4.90;4.30;;;5.10;99.90;;;;;;5033957;28;20595;-75
2023/11/27 08:03:20;;;;;;;6.03;4.23;;;5.00;99.90;;;;;;5033661;28;21137;-66
2023/11/27 08:05:47;;;;;;;5.67;5.13;;;5.00;99.90;;;;;;5037414;28;20420;-72
2023/11/27 08:08:14;;;;;;;4.67;3.67;;;5.00;99.90;;;;;;5037441;28;21249;-70
2023/11/27 08:10:40;;;;;;;5.70;4.07;;;4.90;99.90;;;;;;5037792;28;20438;-65
2023/11/27 08:13:06;;;;;;;5.10;3.90;;;4.90;99.90;;;;;;5037350;28;20432;-71
2023/11/27 08:15:31;;;;;;;5.27;4.00;;;4.90;99.90;;;;;;5036478;28;20432;-72
2023/11/27 08:18:00;;;;;;;3.90;3.60;;;4.90;99.90;;;;;;5037228;28;20482;-73
2023/11/27 08:20:29;;;;;;;5.87;3.83;;;4.90;99.90;;;;;;5040241;28;20225;-72
2023/11/27 08:22:57;;;;;;;4.17;3.37;;;4.90;99.90;;;;;;5037298;28;20451;-66
2023/11/27 08:25:24;;;;;;;3.60;3.27;;;4.90;99.90;;;;;;5036705;28;20473;-71
2023/11/27 08:27:52;;;;;;;4.20;3.80;;;5.00;99.90;;;;;;5037612;28;20428;-70
2023/11/27 08:30:19;;;;;;;4.17;3.77;;;4.90;99.90;;;;;;5037341;28;20794;-65
2023/11/27 08:32:49;;;;;;;4.63;3.67;;;4.90;99.90;;;;;;5036941;28;20434;-73
2023/11/27 08:35:15;;;;;;;5.73;3.80;;;4.80;99.90;;;;;;5037171;28;20432;-68
2023/11/27 08:37:41;;;;;;;3.87;3.20;;;4.80;99.90;;;;;;5037256;28;20429;-71
2023/11/27 08:40:14;;;;;;;4.97;3.80;;;4.80;99.90;;;;;;5036529;28;21027;-73
2023/11/27 08:42:41;;;;;;;3.67;3.20;;;4.80;99.90;;;;;;5037665;28;20602;-72
2023/11/27 08:45:10;;;;;;;4.70;3.23;;;4.80;99.90;;;;;;5036908;28;20478;-67
2023/11/27 08:47:40;;;;;;;3.90;3.10;;;4.80;99.90;;;;;;5037478;28;20432;-74
2023/11/27 08:50:10;;;;;;;3.30;2.87;;;4.80;99.90;;;;;;5037146;28;20460;-70
2023/11/27 08:52:36;;;;;;;5.20;3.10;;;4.80;99.90;;;;;;5036364;28;20428;-65
2023/11/27 08:55:05;;;;;;;2.97;2.70;;;4.70;99.90;;;;;;5038752;28;20432;-74
2023/11/27 08:57:31;;;;;;;3.00;2.70;;;4.70;99.90;;;;;;5040887;28;20574;-73
2023/11/27 08:59:57;;;;;;;3.90;2.80;;;4.70;99.90;;;;;;5041617;28;20547;-70
2023/11/27 09:02:22;;;;;;;3.10;2.80;;;4.60;99.90;;;;;;5037256;28;20504;-76
2023/11/27 09:04:49;;;;;;;2.53;2.33;;;4.60;99.90;;;;;;5037244;28;20418;-71
2023/11/27 09:07:15;;;;;;;2.67;2.47;;;4.60;99.90;;;;;;5039315;28;20178;-67
2023/11/27 09:09:40;;;;;;;3.10;2.50;;;4.60;99.90;;;;;;5056370;28;20896;-70
2023/11/27 09:12:06;;;;;;;3.20;2.20;;;4.60;99.90;;;;;;5041252;28;20425;-69
2023/11/27 09:14:32;;;;;;;2.73;2.10;;;4.60;99.90;;;;;;5051136;28;20186;-66
2023/11/27 09:16:59;;;;;;;3.10;2.10;;;4.60;99.90;;;;;;5037892;28;20459;-67
2023/11/27 09:19:26;;;;;;;2.50;2.07;;;4.60;99.90;;;;;;5036319;28;20343;-70
2023/11/27 09:21:53;;;;;;;2.60;2.40;;;4.60;99.90;;;;;;5036957;28;20429;-65
2023/11/27 09:24:19;;;;;;;3.30;2.20;;;4.50;99.90;;;;;;5035886;28;20926;-71
2023/11/27 09:26:44;;;;;;;3.40;2.30;;;4.50;99.90;;;;;;5036172;28;20437;-70
2023/11/27 09:29:10;;;;;;;2.67;2.30;;;4.40;99.90;;;;;;5036208;28;20190;-70
2023/11/27 09:31:36;;;;;;;1.80;1.70;;;4.40;99.90;;;;;;5036198;28;20561;-68
2023/11/27 09:34:01;;;;;;;2.67;2.37;;;4.40;99.90;;;;;;5035987;28;20524;-75
2023/11/27 09:36:27;;;;;;;2.30;2.10;;;4.40;99.90;;;;;;5036053;28;20214;-73
2023/11/27 09:38:53;;;;;;;2.40;2.20;;;4.40;99.90;;;;;;5036330;28;20193;-66
2023/11/27 09:41:18;;;;;;;2.20;1.77;;;4.50;99.90;;;;;;5035940;28;20725;-69
2023/11/27 09:43:44;;;;;;;2.10;1.80;;;4.50;99.90;;;;;;5035958;28;20593;-71
2023/11/27 09:46:17;;;;;;;1.60;1.50;;;4.40;99.90;;;;;;5035201;28;20207;-71
2023/11/27 09:48:48;;;;;;;1.63;1.30;;;4.40;99.90;;;;;;5034741;28;20433;-72
2023/11/27 09:51:14;;;;;;;1.60;1.50;;;4.40;99.90;;;;;;5035595;28;20433;-70
2023/11/27 09:53:50;;;;;;;1.40;1.30;;;4.40;99.90;;;;;;5035594;28;20435;-66
2023/11/27 09:56:17;;;;;;;1.67;1.53;;;4.40;99.90;;;;;;5035843;28;20421;-72
2023/11/27 09:58:44;;;;;;;1.63;1.50;;;4.40;99.90;;;;;;5035442;28;20437;-70
2023/11/27 10:01:13;;;;;;;2.83;1.30;;;4.40;99.90;;;;;;5035953;28;21389;-69
2023/11/27 10:03:40;;;;;;;1.10;1.00;;;4.40;99.90;;;;;;5035252;28;20478;-69
2023/11/27 10:06:07;;;;;;;1.33;1.23;;;4.40;99.90;;;;;;5035504;28;20983;-71
2023/11/27 10:08:33;;;;;;;1.27;1.17;;;4.40;99.90;;;;;;5035388;28;20449;-65
2023/11/27 10:10:59;;;;;;;2.30;1.47;;;4.40;99.90;;;;;;5034401;28;20424;-64
2023/11/27 10:13:42;;;;;;;2.00;0.90;;;4.40;99.90;;;;;;5035804;28;20482;-68
2023/11/27 10:16:09;;;;;;;1.40;1.30;;;4.40;99.90;;;;;;5034801;28;20580;-67
2023/11/27 10:18:35;;;;;;;1.90;1.00;;;4.40;99.90;;;;;;5035457;28;20535;-72
2023/11/27 10:21:12;;;;;;;1.40;1.00;;;4.50;99.90;;;;;;5035760;28;20504;-66
2023/11/27 10:23:40;;;;;;;1.23;1.13;;;4.50;99.90;;;;;;5025217;28;20808;-69
2023/11/27 10:26:06;;;;;;;1.50;1.00;;;4.50;99.90;;;;;;5033259;28;20429;-71
2023/11/27 10:28:42;;;;;;;1.77;1.20;;;4.60;99.90;;;;;;5035411;28;20939;-74
2023/11/27 10:31:08;;;;;;;3.43;1.07;;;4.60;99.90;;;;;;5033522;28;20843;-67
2023/11/27 10:33:35;;;;;;;1.50;0.70;;;4.70;99.90;;;;;;5034132;28;20420;-72
2023/11/27 10:36:02;;;;;;;0.80;0.80;;;4.70;99.90;;;;;;5034045;28;20419;-70
2023/11/27 10:38:28;;;;;;;1.27;1.03;;;4.70;99.90;;;;;;5034559;28;20508;-66
2023/11/27 10:40:55;;;;;;;0.97;0.90;;;4.70;99.90;;;;;;5033676;28;20519;-72
2023/11/27 10:43:22;;;;;;;0.97;0.87;;;4.80;99.90;;;;;;5032371;28;20425;-74
2023/11/27 10:45:54;;;;;;;1.20;1.10;;;4.80;99.90;;;;;;5033665;28;20472;-71
2023/11/27 10:48:22;;;;;;;1.57;0.97;;;4.80;99.90;;;;;;5033504;28;20653;-72
2023/11/27 10:50:51;;;;;;;1.23;0.90;;;4.80;99.90;;;;;;5034773;28;20888;-74
2023/11/27 10:53:21;;;;;;;1.20;1.10;;;4.70;99.90;;;;;;5034029;28;20416;-76
2023/11/27 10:55:48;;;;;;;1.03;0.80;;;4.70;99.90;;;;;;5033702;28;21276;-72
2023/11/27 10:58:14;;;;;;;2.00;1.33;;;4.80;99.90;;;;;;5033705;28;20430;-65
2023/11/27 11:00:46;;;;;;;1.00;0.90;;;4.70;99.90;;;;;;5034640;28;20476;-71
2023/11/27 11:03:21;;;;;;;2.03;0.73;;;4.80;99.90;;;;;;5032911;28;20992;-69
2023/11/27 11:05:56;;;;;;;1.03;0.83;;;4.80;99.90;;;;;;5034441;28;20433;-68
2023/11/27 11:08:26;;;;;;;1.00;0.90;;;4.80;99.90;;;;;;5034421;28;20511;-72
2023/11/27 11:10:55;;;;;;;1.27;0.97;;;4.80;99.90;;;;;;5034353;28;20439;-70
2023/11/27 11:13:24;;;;;;;0.90;0.80;;;4.90;99.90;;;;;;5032976;28;20508;-71
2023/11/27 11:16:24;;;;;;;0.77;0.77;;;4.90;99.90;;;;;;5033981;28;20436;-71
2023/11/27 11:19:07;;;;;;;0.80;0.70;;;4.90;99.90;;;;;;5038407;28;20455;-70
2023/11/27 11:21:47;;;;;;;1.00;0.70;;;4.90;99.90;;;;;;5034439;28;20579;-72
2023/11/27 11:24:52;;;;;;;1.37;1.23;;;4.90;99.90;;;;;;5033426;28;20417;-70
2023/11/27 11:27:30;;;;;;;1.33;1.17;;;4.90;99.90;;;;;;5015677;28;20424;-67
2023/11/27 11:29:58;;;;;;;1.20;1.10;;;4.80;99.90;;;;;;5033919;28;20436;-67
2023/11/27 11:32:28;;;;;;;1.13;0.93;;;4.80;99.90;;;;;;5033872;28;20487;-70
2023/11/27 11:34:55;;;;;;;0.97;0.87;;;4.80;99.90;;;;;;5033580;28;20995;-72
2023/11/27 11:37:22;;;;;;;1.33;1.23;;;4.80;99.90;;;;;;5034371;28;20456;-66
2023/11/27 11:39:53;;;;;;;1.20;1.10;;;4.80;99.90;;;;;;5038226;28;20484;-69
2023/11/27 11:42:25;;;;;;;1.10;1.00;;;4.80;99.90;;;;;;5037903;28;20856;-68
2023/11/27 11:45:17;;;;;;;1.10;1.00;;;4.80;99.90;;;;;;5036094;28;20469;-65
2023/11/27 11:48:07;;;;;;;1.30;1.03;;;4.80;99.90;;;;;;5038747;28;20524;-72
2023/11/27 11:50:40;;;;;;;1.20;1.10;;;4.80;99.90;;;;;;5037478;28;20433;-68
2023/11/27 11:53:15;;;;;;;1.40;1.30;;;4.80;99.90;;;;;;5038056;28;20836;-66
2023/11/27 11:55:41;;;;;;;2.80;0.90;;;4.80;99.90;;;;;;5037532;28;20424;-71
2023/11/27 11:58:18;;;;;;;1.20;1.10;;;4.80;99.90;;;;;;5037880;28;20478;-70
2023/11/27 12:00:48;;;;;;;1.10;1.00;;;4.80;99.90;;;;;;5037877;28;20584;-73
2023/11/27 12:03:16;;;;;;;2.20;1.00;;;4.80;99.90;;;;;;5036473;28;20420;-65
2023/11/27 12:05:50;;;;;;;1.10;1.07;;;4.70;99.90;;;;;;5037514;28;20518;-68
2023/11/27 12:08:23;;;;;;;1.30;1.03;;;4.70;99.90;;;;;;5035433;28;20527;-75
2023/11/27 12:10:48;;;;;;;1.80;1.27;;;4.70;99.90;;;;;;5036804;28;20981;-69
2023/11/27 12:13:20;;;;;;;1.40;1.30;;;4.70;99.90;;;;;;5035871;28;20427;-69
2023/11/27 12:15:48;;;;;;;1.37;1.00;;;4.70;99.90;;;;;;5035598;28;20425;-69
2023/11/27 12:18:14;;;;;;;0.90;0.90;;;4.80;99.90;;;;;;5035752;28;20908;-66
2023/11/27 12:20:43;;;;;;;1.63;1.33;;;4.80;99.90;;;;;;5035613;28;20472;-78
2023/11/27 12:23:14;;;;;;;1.10;1.00;;;4.90;99.90;;;;;;5037032;28;20432;-65
2023/11/27 12:25:41;;;;;;;2.20;1.00;;;4.90;99.90;;;;;;5034718;28;20887;-68
2023/11/27 12:28:07;;;;;;;1.10;1.00;;;4.90;99.90;;;;;;5036001;28;21015;-72
2023/11/27 12:30:34;;;;;;;1.53;1.20;;;4.90;99.90;;;;;;5035388;28;20452;-71
2023/11/27 12:33:04;;;;;;;1.33;1.17;;;4.90;99.90;;;;;;5036508;28;20471;-71
2023/11/27 12:35:30;;;;;;;1.23;1.10;;;4.80;99.90;;;;;;5034893;28;20433;-68
2023/11/27 12:38:01;;;;;;;1.67;1.40;;;4.80;99.90;;;;;;5036185;28;20443;-66
2023/11/27 12:40:26;;;;;;;1.30;1.20;;;4.90;99.90;;;;;;5034753;28;20491;-70
2023/11/27 12:42:52;;;;;;;1.17;1.07;;;4.90;99.90;;;;;;5036824;28;20845;-69
2023/11/27 12:45:21;;;;;;;1.60;1.33;;;4.80;99.90;;;;;;5035654;28;20558;-75
2023/11/27 12:47:51;;;;;;;1.07;0.97;;;4.80;99.90;;;;;;5040554;28;20437;-66
2023/11/27 12:50:24;;;;;;;1.37;1.20;;;4.80;99.90;;;;;;5034695;28;20452;-73
2023/11/27 12:52:50;;;;;;;1.50;1.27;;;4.90;99.90;;;;;;5036298;28;20431;-70
2023/11/27 12:55:16;;;;;;;1.40;1.30;;;4.90;99.90;;;;;;5035402;28;20425;-74
2023/11/27 12:57:45;;;;;;;1.90;1.20;;;4.90;99.90;;;;;;5035196;28;21109;-74
2023/11/27 13:00:13;;;;;;;1.57;1.10;;;4.90;99.90;;;;;;5035216;28;20222;-68